createdAt,value
2022-10-05T00:00:47.449Z,7.59
2022-10-05T00:03:15.350Z,7.56
2022-10-05T00:05:44.828Z,7.48
2022-10-05T00:08:13.957Z,7.53
2022-10-05T00:10:42.203Z,7.40
2022-10-05T00:13:12.905Z,7.39
2022-10-05T00:15:39.507Z,7.46
2022-10-05T00:18:12.929Z,7.51
2022-10-05T00:20:41.665Z,7.45
2022-10-05T00:23:14.999Z,7.31
2022-10-05T00:25:41.740Z,7.41
2022-10-05T00:28:16.760Z,6.98
2022-10-05T00:30:44.215Z,7.32
2022-10-05T00:33:10.727Z,7.25
2022-10-05T00:35:37.381Z,7.22
2022-10-05T00:38:05.670Z,7.21
2022-10-05T00:40:51.857Z,7.17
2022-10-05T00:43:42.850Z,7.14
2022-10-05T00:46:15.561Z,7.10
2022-10-05T00:48:49.056Z,7.09
2022-10-05T00:51:24.229Z,6.98
2022-10-05T00:54:01.762Z,7.04
2022-10-05T00:56:48.740Z,7.01
2022-10-05T00:59:25.643Z,7.04
2022-10-05T01:01:57.496Z,7.00
2022-10-05T01:04:29.132Z,6.94
2022-10-05T01:07:07.911Z,6.94
2022-10-05T01:09:45.828Z,6.92
2022-10-05T01:12:23.089Z,6.84
2022-10-05T01:14:55.819Z,6.85
2022-10-05T01:17:28.017Z,6.82
2022-10-05T01:20:22.402Z,6.83
2022-10-05T01:23:05.093Z,6.70
2022-10-05T01:25:41.101Z,6.82
2022-10-05T01:28:15.054Z,6.82
2022-10-05T01:30:47.843Z,6.76
2022-10-05T01:33:23.023Z,6.66
2022-10-05T01:35:57.563Z,6.72
2022-10-05T01:38:34.757Z,6.70
2022-10-05T01:41:10.106Z,6.71
2022-10-05T01:43:44.868Z,6.58
2022-10-05T01:46:24.825Z,6.63
2022-10-05T01:49:10.718Z,6.73
2022-10-05T01:51:46.811Z,6.70
2022-10-05T01:54:22.364Z,6.57
2022-10-05T01:57:00.495Z,6.67
2022-10-05T01:59:43.322Z,6.63
2022-10-05T02:02:14.107Z,6.64
2022-10-05T02:05:02.942Z,6.60
2022-10-05T02:07:36.088Z,6.49
2022-10-05T02:10:08.818Z,6.59
2022-10-05T02:12:38.111Z,6.60
2022-10-05T02:15:13.906Z,6.57
2022-10-05T02:17:45.474Z,6.52
2022-10-05T02:20:17.271Z,6.44
2022-10-05T02:22:47.115Z,6.55
2022-10-05T02:25:16.940Z,6.57
2022-10-05T02:27:49.811Z,6.55
2022-10-05T02:30:19.114Z,6.53
2022-10-05T02:32:54.582Z,6.44
2022-10-05T02:35:22.276Z,6.45
2022-10-05T02:38:00.918Z,6.41
2022-10-05T02:40:40.203Z,6.48
2022-10-05T02:43:17.933Z,6.31
2022-10-05T02:45:55.898Z,6.43
2022-10-05T02:48:34.038Z,6.40
2022-10-05T02:51:07.761Z,6.42
2022-10-05T02:53:40.738Z,6.24
2022-10-05T02:56:18.952Z,6.40
2022-10-05T02:58:55.575Z,6.32
2022-10-05T03:01:27.640Z,6.34
2022-10-05T03:04:06.852Z,6.36
2022-10-05T03:06:40.312Z,6.31
2022-10-05T03:09:09.436Z,6.11
2022-10-05T03:11:46.628Z,6.32
2022-10-05T03:14:20.303Z,6.30
2022-10-05T03:17:03.251Z,6.30
2022-10-05T03:19:45.590Z,6.22
2022-10-05T03:22:23.370Z,6.18
2022-10-05T03:25:15.925Z,6.15
2022-10-05T03:27:48.345Z,6.15
2022-10-05T03:30:18.780Z,6.14
2022-10-05T03:33:01.167Z,6.15
2022-10-05T03:35:31.811Z,5.33
2022-10-05T03:38:10.381Z,6.14
2022-10-05T03:40:44.194Z,5.99
2022-10-05T03:43:26.104Z,6.08
2022-10-05T03:45:56.697Z,5.99
2022-10-05T03:48:31.448Z,5.96
2022-10-05T03:51:05.836Z,5.96
2022-10-05T03:53:38.859Z,5.99
2022-10-05T03:56:09.828Z,6.03
2022-10-05T03:58:42.788Z,6.00
2022-10-05T04:01:15.922Z,5.93
2022-10-05T04:03:48.179Z,5.91
2022-10-05T04:06:18.571Z,5.90
2022-10-05T04:08:51.972Z,5.73
2022-10-05T04:11:26.437Z,5.81
2022-10-05T04:14:00.795Z,5.89
2022-10-05T04:16:31.311Z,5.68
2022-10-05T04:19:04.070Z,5.83
2022-10-05T04:21:36.449Z,5.81
2022-10-05T04:24:11.128Z,5.79
2022-10-05T04:26:45.353Z,5.77
2022-10-05T04:29:17.636Z,5.74
2022-10-05T04:31:57.919Z,5.75
2022-10-05T04:34:52.460Z,5.66
2022-10-05T04:37:25.423Z,5.59
2022-10-05T04:40:08.478Z,5.75
2022-10-05T04:42:42.599Z,5.72
2022-10-05T04:45:20.565Z,5.67
2022-10-05T04:48:35.194Z,5.68
2022-10-05T04:51:17.203Z,5.55
2022-10-05T04:53:46.740Z,5.60
2022-10-05T04:56:18.388Z,5.62
2022-10-05T04:59:08.823Z,5.60
2022-10-05T05:01:51.143Z,5.63
2022-10-05T05:04:36.211Z,5.51
2022-10-05T05:07:18.972Z,5.71
2022-10-05T05:10:13.405Z,5.72
2022-10-05T05:12:52.465Z,5.69
2022-10-05T05:15:30.734Z,5.52
2022-10-05T05:18:33.060Z,5.64
2022-10-05T05:21:05.954Z,5.53
2022-10-05T05:23:41.057Z,5.65
2022-10-05T05:26:16.693Z,5.68
2022-10-05T05:28:50.604Z,5.53
2022-10-05T05:31:27.449Z,5.59
2022-10-05T05:34:03.593Z,5.57
2022-10-05T05:36:51.021Z,5.61
2022-10-05T05:39:28.442Z,5.62
2022-10-05T05:42:10.313Z,5.67
2022-10-05T05:44:46.201Z,5.64
2022-10-05T05:47:19.553Z,5.62
2022-10-05T05:50:06.389Z,5.69
2022-10-05T05:52:40.628Z,5.70
2022-10-05T05:55:18.709Z,5.70
2022-10-05T05:57:54.289Z,5.73
2022-10-05T06:00:23.951Z,5.73
2022-10-05T06:03:03.966Z,5.86
2022-10-05T06:05:33.955Z,5.92
2022-10-05T06:08:06.859Z,5.98
2022-10-05T06:10:40.039Z,6.08
2022-10-05T06:13:15.606Z,6.20
2022-10-05T06:15:46.834Z,6.28
2022-10-05T06:18:16.835Z,6.41
2022-10-05T06:20:49.011Z,6.49
2022-10-05T06:23:20.160Z,6.49
2022-10-05T06:26:07.076Z,6.63
2022-10-05T06:28:37.238Z,6.74
2022-10-05T06:31:14.085Z,6.83
2022-10-05T06:33:50.675Z,6.88
2022-10-05T06:36:35.220Z,6.85
2022-10-05T06:39:11.008Z,7.07
2022-10-05T06:41:57.029Z,7.17
2022-10-05T06:44:51.228Z,7.31
2022-10-05T06:47:38.630Z,7.41
2022-10-05T06:50:31.577Z,7.43
2022-10-05T06:53:27.750Z,7.69
2022-10-05T06:55:59.246Z,7.79
2022-10-05T06:58:43.266Z,7.89
2022-10-05T07:01:14.515Z,7.93
2022-10-05T07:03:56.923Z,7.99
2022-10-05T07:06:33.470Z,8.05
2022-10-05T07:09:18.851Z,8.26
2022-10-05T07:12:04.757Z,8.31
2022-10-05T07:14:53.800Z,8.42
2022-10-05T07:17:38.608Z,8.61
2022-10-05T07:20:15.776Z,8.71
2022-10-05T07:23:07.122Z,8.86
2022-10-05T07:25:40.530Z,8.94
2022-10-05T07:28:12.885Z,9.09
2022-10-05T07:30:50.159Z,9.25
2022-10-05T07:33:21.806Z,9.31
2022-10-05T07:35:55.501Z,9.35
2022-10-05T07:38:28.520Z,9.62
2022-10-05T07:41:02.517Z,9.75
2022-10-05T07:44:00.533Z,9.86
2022-10-05T07:46:32.074Z,10.00
2022-10-05T07:49:05.887Z,10.17
2022-10-05T07:51:37.197Z,10.27
2022-10-05T07:54:16.776Z,10.38
2022-10-05T07:56:46.210Z,10.53
2022-10-05T07:59:24.934Z,10.68
2022-10-05T08:01:59.976Z,10.81
2022-10-05T08:04:31.461Z,10.91
2022-10-05T08:07:02.215Z,11.10
2022-10-05T08:09:40.782Z,11.28
2022-10-05T08:12:19.261Z,11.37
2022-10-05T08:14:52.124Z,11.51
2022-10-05T08:17:26.403Z,11.65
2022-10-05T08:20:01.002Z,11.80
2022-10-05T08:22:34.866Z,11.93
2022-10-05T08:25:04.546Z,12.10
2022-10-05T08:27:38.649Z,12.24
2022-10-05T08:30:09.137Z,12.33
2022-10-05T08:32:40.737Z,12.39
2022-10-05T08:35:22.935Z,12.65
2022-10-05T08:37:50.819Z,12.76
2022-10-05T08:40:39.608Z,12.97
2022-10-05T08:43:17.959Z,13.08
2022-10-05T08:46:32.758Z,13.22
2022-10-05T08:49:19.303Z,13.43
2022-10-05T08:52:07.773Z,13.57
2022-10-05T08:54:45.123Z,13.72
2022-10-05T08:57:42.432Z,13.91
2022-10-05T09:00:12.666Z,14.00
2022-10-05T09:03:04.079Z,14.22
2022-10-05T09:06:03.902Z,14.37
2022-10-05T09:08:51.697Z,14.45
2022-10-05T09:11:23.689Z,14.55
2022-10-05T09:14:14.426Z,14.67
2022-10-05T09:16:52.673Z,14.81
2022-10-05T09:19:51.644Z,15.03
2022-10-05T09:22:35.582Z,15.15
2022-10-05T09:25:14.646Z,15.18
2022-10-05T09:27:49.232Z,15.24
2022-10-05T09:30:22.913Z,15.36
2022-10-05T09:33:11.243Z,15.46
2022-10-05T09:36:06.856Z,15.55
2022-10-05T09:38:50.417Z,15.73
2022-10-05T09:41:51.881Z,15.94
2022-10-05T09:44:51.562Z,16.07
2022-10-05T09:47:44.078Z,16.25
2022-10-05T09:50:49.327Z,16.52
2022-10-05T09:53:39.052Z,16.76
2022-10-05T09:56:29.788Z,16.91
2022-10-05T09:59:27.561Z,17.03
2022-10-05T10:02:14.640Z,17.22
2022-10-05T10:05:09.031Z,17.34
2022-10-05T10:08:09.106Z,17.27
2022-10-05T10:10:59.967Z,17.34
2022-10-05T10:13:52.504Z,17.39
2022-10-05T10:16:32.192Z,17.51
2022-10-05T10:19:32.234Z,17.31
2022-10-05T10:22:16.507Z,17.70
2022-10-05T10:25:16.870Z,17.72
2022-10-05T10:27:59.334Z,17.74
2022-10-05T10:30:45.257Z,17.77
2022-10-05T10:33:29.078Z,17.84
2022-10-05T10:36:03.019Z,18.00
2022-10-05T10:38:39.836Z,18.10
2022-10-05T10:41:34.463Z,18.19
2022-10-05T10:44:57.410Z,18.33
2022-10-05T10:47:54.103Z,18.36
2022-10-05T10:50:49.101Z,18.54
2022-10-05T10:53:51.748Z,18.46
2022-10-05T10:56:29.553Z,18.32
2022-10-05T10:59:35.000Z,18.62
2022-10-05T11:02:26.328Z,18.78
2022-10-05T11:05:27.606Z,19.01
2022-10-05T11:08:08.476Z,19.13
2022-10-05T11:10:58.948Z,19.22
2022-10-05T11:13:41.616Z,19.41
2022-10-05T11:16:49.877Z,19.39
2022-10-05T11:20:02.916Z,19.58
2022-10-05T11:22:43.613Z,19.67
2022-10-05T11:25:51.390Z,19.73
2022-10-05T11:28:37.564Z,19.69
2022-10-05T11:31:35.641Z,19.75
2022-10-05T11:34:43.192Z,19.81
2022-10-05T11:37:43.170Z,19.86
2022-10-05T11:40:32.816Z,19.91
2022-10-05T11:43:22.020Z,19.85
2022-10-05T11:46:00.511Z,19.75
2022-10-05T11:48:45.374Z,19.85
2022-10-05T11:51:37.271Z,19.89
2022-10-05T11:54:24.043Z,19.91
2022-10-05T11:56:59.152Z,19.96
2022-10-05T11:59:32.882Z,19.94
2022-10-05T12:02:26.916Z,19.89
2022-10-05T12:05:08.407Z,19.94
2022-10-05T12:07:43.287Z,20.09
2022-10-05T12:10:26.796Z,20.15
2022-10-05T12:13:06.207Z,20.15
2022-10-05T12:15:43.064Z,20.26
2022-10-05T12:18:15.150Z,20.33
2022-10-05T12:20:49.215Z,20.50
2022-10-05T12:23:22.920Z,20.33
2022-10-05T12:25:56.420Z,20.59
2022-10-05T12:28:36.454Z,20.51
2022-10-05T12:31:17.275Z,20.58
2022-10-05T12:33:50.431Z,20.81
2022-10-05T12:36:22.981Z,21.02
2022-10-05T12:38:57.687Z,21.05
2022-10-05T12:41:32.532Z,21.23
2022-10-05T12:44:16.382Z,21.34
2022-10-05T12:46:53.726Z,21.31
2022-10-05T12:49:32.761Z,21.07
2022-10-05T12:52:02.001Z,21.20
2022-10-05T12:54:42.123Z,20.97
2022-10-05T12:57:14.541Z,21.03
2022-10-05T12:59:46.961Z,20.87
2022-10-05T13:02:27.094Z,20.98
2022-10-05T13:04:59.662Z,20.91
2022-10-05T13:07:39.561Z,20.82
2022-10-05T13:10:20.233Z,20.76
2022-10-05T13:12:56.662Z,20.74
2022-10-05T13:15:29.420Z,20.79
2022-10-05T13:18:08.104Z,20.77
2022-10-05T13:20:44.131Z,20.80
2022-10-05T13:23:18.227Z,20.89
2022-10-05T13:25:52.391Z,20.97
2022-10-05T13:28:24.469Z,21.00
2022-10-05T13:31:02.916Z,21.08
2022-10-05T13:33:53.310Z,21.21
2022-10-05T13:36:28.502Z,21.30
2022-10-05T13:39:00.599Z,21.51
2022-10-05T13:41:37.671Z,21.59
2022-10-05T13:44:15.810Z,21.65
2022-10-05T13:46:48.551Z,21.69
2022-10-05T13:49:23.121Z,21.72
2022-10-05T13:51:57.990Z,21.75
2022-10-05T13:54:36.055Z,21.90
2022-10-05T13:57:14.752Z,21.94
2022-10-05T13:59:47.645Z,21.95
2022-10-05T14:02:21.619Z,22.14
2022-10-05T14:04:50.169Z,22.14
2022-10-05T14:07:29.857Z,22.23
2022-10-05T14:09:57.247Z,22.28
2022-10-05T14:12:25.445Z,22.24
2022-10-05T14:14:53.800Z,22.32
2022-10-05T14:17:46.203Z,22.33
2022-10-05T14:20:25.249Z,22.26
2022-10-05T14:22:56.191Z,22.03
2022-10-05T14:25:23.342Z,22.09
2022-10-05T14:27:59.589Z,21.95
2022-10-05T14:30:27.995Z,22.03
2022-10-05T14:33:05.811Z,22.19
2022-10-05T14:35:45.825Z,22.29
2022-10-05T14:38:18.876Z,22.15
2022-10-05T14:40:45.571Z,22.15
2022-10-05T14:43:20.407Z,22.23
2022-10-05T14:45:54.609Z,22.28
2022-10-05T14:48:24.897Z,22.29
2022-10-05T14:50:54.474Z,22.34
2022-10-05T14:53:23.238Z,22.31
2022-10-05T14:56:08.831Z,22.28
2022-10-05T14:58:51.471Z,22.08
2022-10-05T15:01:25.707Z,21.89
2022-10-05T15:04:04.017Z,21.70
2022-10-05T15:06:36.978Z,21.86
2022-10-05T15:09:23.063Z,21.54
2022-10-05T15:11:52.753Z,21.44
2022-10-05T15:14:22.224Z,21.61
2022-10-05T15:16:51.339Z,21.62
2022-10-05T15:19:39.700Z,21.50
2022-10-05T15:22:19.000Z,21.43
2022-10-05T15:24:55.983Z,21.37
2022-10-05T15:27:29.371Z,21.48
2022-10-05T15:30:03.225Z,21.61
2022-10-05T15:32:43.139Z,21.37
2022-10-05T15:35:33.039Z,21.33
2022-10-05T15:38:08.971Z,21.23
2022-10-05T15:40:41.757Z,21.44
2022-10-05T15:43:13.702Z,21.47
2022-10-05T15:45:52.950Z,21.39
2022-10-05T15:48:25.038Z,21.40
2022-10-05T15:50:59.539Z,21.33
2022-10-05T15:53:35.815Z,21.30
2022-10-05T15:56:07.093Z,21.36
2022-10-05T15:58:50.811Z,21.11
2022-10-05T16:01:21.239Z,21.18
2022-10-05T16:03:56.834Z,21.01
2022-10-05T16:06:33.456Z,21.02
2022-10-05T16:09:09.430Z,21.00
2022-10-05T16:11:57.766Z,21.10
2022-10-05T16:14:49.885Z,20.88
2022-10-05T16:17:26.304Z,20.72
2022-10-05T16:20:02.909Z,20.75
2022-10-05T16:22:43.246Z,20.68
2022-10-05T16:25:19.604Z,20.56
2022-10-05T16:28:08.308Z,20.53
2022-10-05T16:30:47.522Z,20.38
2022-10-05T16:33:21.259Z,20.17
2022-10-05T16:35:59.727Z,20.18
2022-10-05T16:38:36.708Z,20.11
2022-10-05T16:41:07.791Z,19.97
2022-10-05T16:43:44.966Z,19.83
2022-10-05T16:46:22.229Z,19.67
2022-10-05T16:48:57.895Z,19.60
2022-10-05T16:51:32.724Z,19.46
2022-10-05T16:54:10.582Z,19.33
2022-10-05T16:56:42.613Z,19.21
2022-10-05T16:59:44.015Z,19.11
2022-10-05T17:02:22.554Z,18.95
2022-10-05T17:04:59.882Z,18.79
2022-10-05T17:07:53.097Z,18.72
2022-10-05T17:10:40.086Z,18.53
2022-10-05T17:13:23.236Z,18.35
2022-10-05T17:16:03.661Z,18.37
2022-10-05T17:18:58.433Z,18.30
2022-10-05T17:21:30.315Z,18.19
2022-10-05T17:24:04.763Z,18.09
2022-10-05T17:26:54.262Z,18.01
2022-10-05T17:29:27.853Z,17.80
2022-10-05T17:32:30.127Z,17.67
2022-10-05T17:35:20.149Z,17.68
2022-10-05T17:38:10.053Z,17.61
2022-10-05T17:40:38.873Z,17.54
2022-10-05T17:43:23.680Z,17.44
2022-10-05T17:45:54.367Z,17.43
2022-10-05T17:48:40.209Z,17.32
2022-10-05T17:51:37.627Z,17.32
2022-10-05T17:54:21.653Z,17.22
2022-10-05T17:57:22.447Z,17.15
2022-10-05T17:59:59.417Z,17.07
2022-10-05T18:02:40.497Z,16.99
2022-10-05T18:05:23.616Z,16.94
2022-10-05T18:08:25.803Z,16.97
2022-10-05T18:11:13.622Z,16.91
2022-10-05T18:13:45.533Z,16.78
2022-10-05T18:16:51.959Z,16.93
2022-10-05T18:19:21.899Z,16.84
2022-10-05T18:22:03.510Z,17.06
2022-10-05T18:24:50.688Z,17.04
2022-10-05T18:27:49.593Z,17.11
2022-10-05T18:30:21.640Z,17.05
2022-10-05T18:33:24.945Z,17.04
2022-10-05T18:36:07.608Z,16.93
2022-10-05T18:38:44.097Z,16.39
2022-10-05T18:41:21.105Z,16.94
2022-10-05T18:43:59.693Z,16.95
2022-10-05T18:46:38.570Z,16.93
2022-10-05T18:49:27.309Z,16.81
2022-10-05T18:52:02.356Z,16.71
2022-10-05T18:54:51.998Z,16.69
2022-10-05T18:57:51.081Z,16.75
2022-10-05T19:00:19.514Z,16.74
2022-10-05T19:02:50.275Z,16.69
2022-10-05T19:05:46.907Z,16.68
2022-10-05T19:08:24.942Z,16.68
2022-10-05T19:10:55.218Z,16.45
2022-10-05T19:13:33.988Z,16.56
2022-10-05T19:16:18.308Z,16.46
2022-10-05T19:19:06.940Z,16.49
2022-10-05T19:21:43.518Z,16.50
2022-10-05T19:24:29.010Z,16.46
2022-10-05T19:27:06.458Z,16.36
2022-10-05T19:29:46.974Z,16.14
2022-10-05T19:32:22.736Z,16.14
2022-10-05T19:35:04.997Z,16.09
2022-10-05T19:37:43.562Z,16.16
2022-10-05T19:40:18.022Z,16.05
2022-10-05T19:43:00.989Z,16.10
2022-10-05T19:45:29.373Z,16.10
2022-10-05T19:48:14.145Z,15.99
2022-10-05T19:50:53.780Z,16.09
2022-10-05T19:53:25.594Z,16.17
2022-10-05T19:55:52.438Z,16.15
2022-10-05T19:58:21.723Z,16.06
2022-10-05T20:00:55.179Z,16.13
2022-10-05T20:03:24.793Z,16.05
2022-10-05T20:05:51.314Z,16.17
2022-10-05T20:08:20.153Z,16.21
2022-10-05T20:11:04.656Z,16.15
2022-10-05T20:13:31.466Z,16.20
2022-10-05T20:16:09.398Z,16.12
2022-10-05T20:18:47.222Z,16.11
2022-10-05T20:21:39.056Z,16.12
2022-10-05T20:24:07.083Z,16.10
2022-10-05T20:26:39.526Z,16.06
2022-10-05T20:29:08.584Z,16.01
2022-10-05T20:31:35.168Z,16.10
2022-10-05T20:34:01.913Z,15.94
2022-10-05T20:36:28.483Z,16.12
2022-10-05T20:38:55.374Z,16.10
2022-10-05T20:41:21.853Z,16.09
2022-10-05T20:43:49.779Z,16.01
2022-10-05T20:46:16.326Z,16.07
2022-10-05T20:48:42.884Z,16.06
2022-10-05T20:51:09.415Z,16.06
2022-10-05T20:53:35.975Z,16.08
2022-10-05T20:56:02.553Z,16.06
2022-10-05T20:58:29.711Z,15.96
2022-10-05T21:00:57.965Z,16.01
2022-10-05T21:03:24.670Z,16.03
2022-10-05T21:05:51.520Z,16.08
2022-10-05T21:08:18.283Z,16.07
2022-10-05T21:10:45.982Z,15.96
2022-10-05T21:13:12.823Z,16.02
2022-10-05T21:15:40.463Z,16.00
2022-10-05T21:18:08.726Z,15.90
2022-10-05T21:20:35.282Z,15.82
2022-10-05T21:23:01.968Z,15.79
2022-10-05T21:25:28.584Z,15.85
2022-10-05T21:27:55.323Z,15.91
2022-10-05T21:30:21.970Z,15.86
2022-10-05T21:32:48.688Z,15.93
2022-10-05T21:35:16.681Z,15.88
2022-10-05T21:37:43.274Z,15.88
2022-10-05T21:40:10.652Z,15.91
2022-10-05T21:42:37.326Z,15.97
2022-10-05T21:45:04.592Z,16.00
2022-10-05T21:47:31.266Z,15.95
2022-10-05T21:49:57.854Z,16.08
2022-10-05T21:52:26.096Z,16.08
2022-10-05T21:54:52.635Z,16.10
2022-10-05T21:57:19.247Z,15.95
2022-10-05T21:59:46.176Z,16.11
2022-10-05T22:02:12.761Z,16.09
2022-10-05T22:04:39.364Z,15.51
2022-10-05T22:07:14.108Z,16.11
2022-10-05T22:09:42.194Z,16.07
2022-10-05T22:12:08.710Z,16.15
2022-10-05T22:14:35.250Z,16.19
2022-10-05T22:17:01.802Z,16.21
2022-10-05T22:19:28.503Z,16.24
2022-10-05T22:21:55.049Z,16.29
2022-10-05T22:24:21.733Z,16.20
2022-10-05T22:26:50.438Z,16.31
2022-10-05T22:29:17.395Z,16.54
2022-10-05T22:31:44.892Z,16.45
2022-10-05T22:34:11.632Z,16.70
2022-10-05T22:36:38.150Z,16.76
2022-10-05T22:39:04.815Z,16.83
2022-10-05T22:41:31.398Z,16.93
2022-10-05T22:43:59.825Z,16.94
2022-10-05T22:46:26.437Z,16.93
2022-10-05T22:48:53.382Z,16.81
2022-10-05T22:51:19.915Z,17.08
2022-10-05T22:53:46.523Z,17.12
2022-10-05T22:56:13.886Z,17.11
2022-10-05T22:58:42.019Z,17.21
2022-10-05T23:01:12.340Z,17.09
2022-10-05T23:03:39.369Z,17.15
2022-10-05T23:06:08.159Z,16.91
2022-10-05T23:08:36.313Z,16.96
2022-10-05T23:11:03.771Z,16.89
2022-10-05T23:13:30.913Z,16.77
2022-10-05T23:15:57.749Z,16.81
2022-10-05T23:18:26.297Z,16.70
2022-10-05T23:20:54.095Z,16.32
2022-10-05T23:23:20.902Z,16.38
2022-10-05T23:25:47.442Z,16.45
2022-10-05T23:28:14.185Z,16.31
2022-10-05T23:30:40.914Z,16.23
2022-10-05T23:33:07.546Z,16.14
2022-10-05T23:35:35.414Z,16.16
2022-10-05T23:38:02.035Z,16.24
2022-10-05T23:40:28.545Z,16.25
2022-10-05T23:42:55.104Z,16.23
2022-10-05T23:45:21.849Z,16.07
2022-10-05T23:47:48.406Z,16.02
2022-10-05T23:50:15.188Z,16.09
2022-10-05T23:52:44.279Z,16.08
2022-10-05T23:55:10.832Z,16.06
2022-10-05T23:57:37.440Z,16.01
